EST,Max TemperatureF,Mean TemperatureF,Min TemperatureF,Max Dew PointF,MeanDew PointF,Min DewpointF,Max Humidity, Mean Humidity, Min Humidity, Max Sea Level PressureIn, Mean Sea Level PressureIn, Min Sea Level PressureIn, Max VisibilityMiles, Mean VisibilityMiles, Min VisibilityMiles, Max Wind SpeedMPH, Mean Wind SpeedMPH, Max Gust SpeedMPH,PrecipitationIn, CloudCover, Events, WindDirDegrees
2013-1-1,68,56,44,55,50,43,100,78,56,30.21,30.08,29.95,10,10,10,12,6,,0.00,5,,201
2013-1-2,62,56,51,61,54,52,100,90,72,30.15,30.02,29.91,10,9,3,9,6,16,0.00,8,Rain,309
2013-1-3,53,48,44,52,49,43,100,98,87,30.28,30.18,30.10,10,10,5,8,2,,0.00,8,Rain,17
2013-1-4,53,43,33,43,36,30,100,77,41,30.36,30.31,30.26,10,9,0,6,2,,0.00,2,Fog,342
2013-1-5,57,44,30,43,32,27,100,71,31,30.42,30.35,30.31,10,10,5,8,1,,0.00,0,Rain,59
2013-1-6,53,48,44,45,42,37,100,80,54,30.29,30.20,30.12,10,10,10,7,1,,0.00,7,Rain,248
2013-1-7,55,45,35,41,34,30,100,69,38,30.41,30.33,30.20,10,10,10,15,6,18,0.00,0,,22
2013-1-8,64,52,41,50,42,34,94,72,52,30.40,30.35,30.31,10,10,10,9,4,,0.00,2,,39
2013-1-9,71,61,51,59,54,48,100,84,60,30.41,30.37,30.32,10,9,0,8,3,,0.00,4,Fog-Rain,40
2013-1-10,71,60,48,61,56,48,100,87,53,30.45,30.40,30.35,10,7,0,15,4,21,0.00,7,Fog-Rain,72
2013-1-11,73,63,53,63,59,54,100,91,65,30.34,30.25,30.18,10,6,0,8,3,,0.00,5,Fog-Rain,161
2013-1-12,78,68,59,64,60,55,100,85,44,30.22,30.17,30.13,10,6,0,7,2,,0.00,3,Fog,182
2013-1-13,75,62,50,63,58,50,100,88,53,30.19,30.14,30.09,10,7,0,8,2,,0.00,2,Fog,165
2013-1-14,78,68,57,64,60,57,100,84,51,30.21,30.15,30.11,10,8,0,13,5,20,0.00,2,Fog,179
2013-1-15,78,66,53,63,59,54,100,83,42,30.17,30.11,30.05,10,8,0,13,4,17,0.00,3,Fog,187
2013-1-16,80,70,60,64,60,54,100,80,42,30.08,30.01,29.96,10,10,5,16,6,23,0.00,2,,190
2013-1-17,77,60,44,61,54,36,100,81,47,30.10,29.93,29.75,10,10,5,23,8,38,0.00,3,Rain,208
2013-1-18,55,44,32,39,29,16,100,60,22,30.51,30.40,30.11,10,10,10,16,7,24,0.00,1,,8
2013-1-19,62,47,32,43,36,28,100,72,39,30.49,30.36,30.25,10,10,10,8,3,,0.00,2,,16
2013-1-20,68,52,37,43,34,21,100,64,17,30.23,30.15,30.06,10,10,2,15,3,21,0.00,0,,273
2013-1-21,66,49,32,36,32,30,100,56,26,30.12,30.06,29.98,10,10,10,14,3,18,0.00,0,,266
2013-1-22,55,44,33,28,21,18,70,41,24,30.30,30.19,30.07,10,10,10,14,8,23,0.00,0,,289
2013-1-23,55,42,30,32,24,14,75,55,28,30.40,30.29,30.20,10,10,10,10,4,17,0.00,0,,275
2013-1-24,68,52,35,43,31,12,87,52,21,30.47,30.22,30.12,10,10,10,20,9,26,0.00,0,,286
2013-1-25,46,38,30,32,22,12,65,54,44,30.48,30.32,30.16,10,10,10,12,6,16,0.00,4,,27
2013-1-26,60,46,33,36,32,30,87,64,34,30.33,30.21,30.13,10,10,10,7,2,,0.00,2,,29
2013-1-27,55,44,33,36,31,27,87,65,38,30.52,30.45,30.34,10,10,10,12,6,16,0.00,1,,55
2013-1-28,66,54,41,52,42,32,100,75,52,30.46,30.38,30.29,10,9,0,7,3,,0.00,5,Fog,48
2013-1-29,77,60,44,64,55,45,100,87,53,30.29,30.21,30.11,10,6,0,14,3,18,0.00,6,Fog,174
2013-1-30,77,67,55,66,62,55,100,82,57,30.11,29.89,29.65,10,10,5,33,14,43,0.00,6,Rain,183
2013-1-31,55,48,37,55,30,18,100,52,24,30.20,30.01,29.75,10,10,5,25,13,32,0.00,2,Rain,269